createdAt,value
2022-09-24T00:00:34.441Z,995.81
2022-09-24T00:01:34.510Z,995.77
2022-09-24T00:02:34.447Z,995.80
2022-09-24T00:03:34.455Z,995.80
2022-09-24T00:04:34.394Z,995.80
2022-09-24T00:05:34.386Z,995.85
2022-09-24T00:06:34.383Z,995.80
2022-09-24T00:07:34.365Z,995.87
2022-09-24T00:08:34.393Z,995.86
2022-09-24T00:09:34.348Z,995.83
2022-09-24T00:10:34.353Z,995.91
2022-09-24T00:11:34.359Z,995.94
2022-09-24T00:12:34.329Z,995.89
2022-09-24T00:13:34.350Z,995.88
2022-09-24T00:14:34.322Z,995.88
2022-09-24T00:15:34.308Z,995.85
2022-09-24T00:16:34.330Z,995.89
2022-09-24T00:17:34.290Z,995.86
2022-09-24T00:18:34.302Z,995.83
2022-09-24T00:19:34.277Z,995.93
2022-09-24T00:20:34.343Z,995.88
2022-09-24T00:21:34.252Z,995.86
2022-09-24T00:22:34.250Z,995.88
2022-09-24T00:23:34.263Z,995.84
2022-09-24T00:24:34.234Z,995.90
2022-09-24T00:25:34.224Z,995.87
2022-09-24T00:26:34.215Z,995.87
2022-09-24T00:27:34.204Z,995.84
2022-09-24T00:28:34.226Z,995.85
2022-09-24T00:29:34.416Z,995.81
2022-09-24T00:30:34.199Z,995.80
2022-09-24T00:31:34.223Z,995.81
2022-09-24T00:32:34.165Z,995.82
2022-09-24T00:33:34.196Z,995.86
2022-09-24T00:34:34.152Z,995.86
2022-09-24T00:35:34.138Z,995.91
2022-09-24T00:36:34.130Z,995.84
2022-09-24T00:37:34.118Z,995.82
2022-09-24T00:38:34.147Z,995.87
2022-09-24T00:39:34.107Z,995.74
2022-09-24T00:40:34.191Z,995.72
2022-09-24T00:41:35.086Z,995.78
2022-09-24T00:42:34.092Z,995.75
2022-09-24T00:43:34.085Z,995.73
2022-09-24T00:44:34.095Z,995.78
2022-09-24T00:45:34.049Z,995.80
2022-09-24T00:46:34.107Z,995.70
2022-09-24T00:47:34.038Z,995.81
2022-09-24T00:48:34.026Z,995.71
2022-09-24T00:49:34.050Z,995.69
2022-09-24T00:50:34.013Z,995.73
2022-09-24T00:51:34.033Z,995.68
2022-09-24T00:52:34.004Z,995.68
2022-09-24T00:53:33.990Z,995.68
2022-09-24T00:54:34.015Z,995.64
2022-09-24T00:55:33.973Z,995.68
2022-09-24T00:56:34.016Z,995.73
2022-09-24T00:57:34.018Z,995.75
2022-09-24T00:58:33.951Z,995.76
2022-09-24T00:59:33.977Z,995.74
2022-09-24T01:00:33.985Z,995.71
2022-09-24T01:01:35.028Z,995.76
2022-09-24T01:02:34.010Z,995.71
2022-09-24T01:03:33.907Z,995.75
2022-09-24T01:04:34.008Z,995.73
2022-09-24T01:05:33.888Z,995.68
2022-09-24T01:06:33.883Z,995.71
2022-09-24T01:07:33.883Z,995.71
2022-09-24T01:08:33.866Z,995.68
2022-09-24T01:09:33.885Z,995.61
2022-09-24T01:10:33.851Z,995.62
2022-09-24T01:11:33.843Z,995.63
2022-09-24T01:12:33.831Z,995.60
2022-09-24T01:13:33.840Z,995.65
2022-09-24T01:14:33.848Z,995.67
2022-09-24T01:15:33.812Z,995.63
2022-09-24T01:16:33.890Z,995.70
2022-09-24T01:17:33.792Z,995.68
2022-09-24T01:18:33.787Z,995.74
2022-09-24T01:19:33.808Z,995.69
2022-09-24T01:20:33.771Z,995.77
2022-09-24T01:21:33.760Z,995.78
2022-09-24T01:22:33.750Z,995.75
2022-09-24T01:23:33.754Z,995.75
2022-09-24T01:24:33.761Z,995.76
2022-09-24T01:25:33.731Z,995.73
2022-09-24T01:26:33.736Z,995.75
2022-09-24T01:27:33.699Z,995.84
2022-09-24T01:28:34.709Z,995.69
2022-09-24T01:29:33.722Z,995.70
2022-09-24T01:30:33.691Z,995.67
2022-09-24T01:31:33.710Z,995.65
2022-09-24T01:32:33.664Z,995.62
2022-09-24T01:33:33.662Z,995.56
2022-09-24T01:34:33.680Z,995.67
2022-09-24T01:35:33.641Z,995.59
2022-09-24T01:36:33.634Z,995.57
2022-09-24T01:37:33.638Z,995.60
2022-09-24T01:38:33.620Z,995.57
2022-09-24T01:39:33.642Z,995.57
2022-09-24T01:40:33.663Z,995.50
2022-09-24T01:41:33.596Z,995.54
2022-09-24T01:42:33.587Z,995.48
2022-09-24T01:43:33.580Z,995.53
2022-09-24T01:44:33.599Z,995.51
2022-09-24T01:45:33.561Z,995.53
2022-09-24T01:46:33.611Z,995.51
2022-09-24T01:47:34.862Z,995.47
2022-09-24T01:48:34.547Z,995.49
2022-09-24T01:49:33.560Z,995.44
2022-09-24T01:50:33.523Z,995.50
2022-09-24T01:51:33.516Z,995.53
2022-09-24T01:52:33.513Z,995.53
2022-09-24T01:53:33.503Z,995.56
2022-09-24T01:54:33.534Z,995.48
2022-09-24T01:55:33.487Z,995.45
2022-09-24T01:56:33.471Z,995.47
2022-09-24T01:57:33.465Z,995.45
2022-09-24T01:58:33.462Z,995.44
2022-09-24T01:59:33.483Z,995.42
2022-09-24T02:00:33.518Z,995.38
2022-09-24T02:01:33.529Z,995.36
2022-09-24T02:02:33.487Z,995.34
2022-09-24T02:03:33.416Z,995.33
2022-09-24T02:04:33.444Z,995.32
2022-09-24T02:05:33.396Z,995.34
2022-09-24T02:06:33.395Z,995.29
2022-09-24T02:07:33.381Z,995.30
2022-09-24T02:08:33.397Z,995.26
2022-09-24T02:09:33.378Z,995.26
2022-09-24T02:10:33.383Z,995.22
2022-09-24T02:11:33.354Z,995.22
2022-09-24T02:12:33.349Z,995.24
2022-09-24T02:13:33.338Z,995.22
2022-09-24T02:14:33.330Z,995.33
2022-09-24T02:15:33.353Z,995.22
2022-09-24T02:16:33.351Z,995.25
2022-09-24T02:17:33.299Z,995.24
2022-09-24T02:18:33.295Z,995.18
2022-09-24T02:19:33.318Z,995.22
2022-09-24T02:20:33.285Z,995.22
2022-09-24T02:21:33.272Z,995.21
2022-09-24T02:22:33.261Z,995.25
2022-09-24T02:23:33.255Z,995.28
2022-09-24T02:24:33.285Z,995.23
2022-09-24T02:25:33.232Z,995.20
2022-09-24T02:26:33.236Z,995.26
2022-09-24T02:27:33.319Z,995.30
2022-09-24T02:28:33.207Z,995.24
2022-09-24T02:29:33.240Z,995.25
2022-09-24T02:30:33.197Z,995.20
2022-09-24T02:31:33.299Z,995.19
2022-09-24T02:32:33.284Z,995.15
2022-09-24T02:33:33.172Z,995.15
2022-09-24T02:34:33.190Z,995.16
2022-09-24T02:35:33.149Z,995.17
2022-09-24T02:36:33.151Z,995.13
2022-09-24T02:37:33.227Z,995.09
2022-09-24T02:38:33.132Z,995.08
2022-09-24T02:39:33.162Z,995.13
2022-09-24T02:40:33.184Z,995.07
2022-09-24T02:41:33.106Z,995.08
2022-09-24T02:42:33.160Z,995.07
2022-09-24T02:43:34.087Z,995.05
2022-09-24T02:44:33.115Z,994.98
2022-09-24T02:45:33.069Z,995.01
2022-09-24T02:46:33.132Z,994.99
2022-09-24T02:47:33.139Z,995.00
2022-09-24T02:48:33.047Z,994.98
2022-09-24T02:49:33.093Z,994.99
2022-09-24T02:50:33.032Z,994.98
2022-09-24T02:51:33.023Z,994.96
2022-09-24T02:52:33.083Z,994.93
2022-09-24T02:53:33.005Z,994.90
2022-09-24T02:54:32.991Z,994.88
2022-09-24T02:55:33.029Z,994.84
2022-09-24T02:56:32.975Z,994.85
2022-09-24T02:57:32.972Z,994.83
2022-09-24T02:58:32.954Z,994.85
2022-09-24T02:59:32.947Z,994.85
2022-09-24T03:00:32.967Z,994.77
2022-09-24T03:01:32.948Z,994.80
2022-09-24T03:02:33.999Z,994.79
2022-09-24T03:03:32.919Z,994.80
2022-09-24T03:04:32.906Z,994.82
2022-09-24T03:05:32.930Z,994.80
2022-09-24T03:06:32.914Z,994.80
2022-09-24T03:07:32.883Z,994.80
2022-09-24T03:08:32.881Z,994.86
2022-09-24T03:09:32.879Z,994.89
2022-09-24T03:10:32.886Z,994.90
2022-09-24T03:11:32.851Z,994.92
2022-09-24T03:12:32.838Z,994.95
2022-09-24T03:13:32.825Z,994.91
2022-09-24T03:14:32.853Z,994.87
2022-09-24T03:15:32.844Z,994.89
2022-09-24T03:16:32.889Z,994.84
2022-09-24T03:17:32.802Z,994.82
2022-09-24T03:18:32.792Z,994.80
2022-09-24T03:19:32.816Z,994.76
2022-09-24T03:20:32.789Z,994.79
2022-09-24T03:21:32.765Z,994.83
2022-09-24T03:22:32.759Z,994.81
2022-09-24T03:23:32.746Z,994.87
2022-09-24T03:24:32.778Z,994.86
2022-09-24T03:25:32.742Z,994.93
2022-09-24T03:26:32.728Z,994.82
2022-09-24T03:27:32.725Z,994.85
2022-09-24T03:28:32.706Z,994.82
2022-09-24T03:29:32.752Z,994.82
2022-09-24T03:30:32.695Z,994.81
2022-09-24T03:31:32.762Z,994.83
2022-09-24T03:32:32.681Z,994.81
2022-09-24T03:33:32.666Z,994.80
2022-09-24T03:34:32.694Z,994.79
2022-09-24T03:35:32.658Z,994.78
2022-09-24T03:36:32.645Z,994.84
2022-09-24T03:37:32.639Z,994.84
2022-09-24T03:38:32.625Z,994.80
2022-09-24T03:39:32.609Z,994.79
2022-09-24T03:40:32.724Z,994.82
2022-09-24T03:41:32.598Z,994.76
2022-09-24T03:42:32.632Z,994.80
2022-09-24T03:43:32.592Z,994.77
2022-09-24T03:44:32.577Z,994.76
2022-09-24T03:45:32.595Z,994.67
2022-09-24T03:46:32.604Z,994.79
2022-09-24T03:47:32.552Z,994.75
2022-09-24T03:48:32.544Z,994.79
2022-09-24T03:49:32.540Z,994.81
2022-09-24T03:50:32.557Z,994.82
2022-09-24T03:51:32.514Z,994.76
2022-09-24T03:52:32.507Z,994.82
2022-09-24T03:53:32.500Z,994.81
2022-09-24T03:54:32.521Z,994.82
2022-09-24T03:55:32.515Z,994.73
2022-09-24T03:56:32.471Z,994.77
2022-09-24T03:57:32.465Z,994.74
2022-09-24T03:58:32.459Z,994.85
2022-09-24T03:59:32.460Z,994.80
2022-09-24T04:00:35.344Z,994.83
2022-09-24T04:01:33.489Z,994.85
2022-09-24T04:02:32.495Z,994.82
2022-09-24T04:03:32.417Z,994.83
2022-09-24T04:04:32.413Z,994.85
2022-09-24T04:05:32.436Z,994.89
2022-09-24T04:06:32.393Z,994.81
2022-09-24T04:07:32.389Z,994.84
2022-09-24T04:08:32.376Z,994.77
2022-09-24T04:09:32.372Z,994.86
2022-09-24T04:10:32.387Z,994.93
2022-09-24T04:11:32.360Z,994.90
2022-09-24T04:12:32.350Z,994.89
2022-09-24T04:13:32.347Z,994.93
2022-09-24T04:14:32.324Z,994.94
2022-09-24T04:15:32.345Z,994.90
2022-09-24T04:16:32.343Z,994.91
2022-09-24T04:17:32.304Z,994.94
2022-09-24T04:18:37.018Z,994.94
2022-09-24T04:19:34.283Z,994.88
2022-09-24T04:20:32.306Z,994.97
2022-09-24T04:21:32.264Z,994.97
2022-09-24T04:22:32.257Z,994.92
2022-09-24T04:23:32.253Z,995.00
2022-09-24T04:24:32.238Z,994.97
2022-09-24T04:25:32.258Z,995.00
2022-09-24T04:26:32.230Z,994.98
2022-09-24T04:27:32.230Z,994.96
2022-09-24T04:28:32.213Z,994.96
2022-09-24T04:29:32.197Z,994.87
2022-09-24T04:30:32.226Z,994.83
2022-09-24T04:31:32.213Z,994.86
2022-09-24T04:32:32.185Z,994.82
2022-09-24T04:33:32.167Z,994.83
2022-09-24T04:34:32.159Z,994.85
2022-09-24T04:35:32.185Z,994.88
2022-09-24T04:36:32.152Z,994.94
2022-09-24T04:37:32.131Z,994.93
2022-09-24T04:38:32.141Z,994.91
2022-09-24T04:39:32.120Z,994.90
2022-09-24T04:40:32.239Z,994.92
2022-09-24T04:41:32.097Z,994.89
2022-09-24T04:42:32.093Z,994.97
2022-09-24T04:43:32.094Z,994.88
2022-09-24T04:44:32.080Z,994.93
2022-09-24T04:45:32.104Z,994.87
2022-09-24T04:46:32.189Z,994.90
2022-09-24T04:47:32.050Z,994.93
2022-09-24T04:48:32.047Z,994.86
2022-09-24T04:49:32.029Z,994.86
2022-09-24T04:50:32.025Z,994.81
2022-09-24T04:51:32.043Z,994.82
2022-09-24T04:52:32.009Z,994.84
2022-09-24T04:53:31.998Z,994.80
2022-09-24T04:54:31.991Z,994.91
2022-09-24T04:55:32.020Z,994.84
2022-09-24T04:56:31.982Z,994.86
2022-09-24T04:57:31.975Z,994.80
2022-09-24T04:58:31.959Z,994.82
2022-09-24T04:59:31.948Z,994.83
2022-09-24T05:00:31.974Z,994.83
2022-09-24T05:01:32.070Z,994.90
2022-09-24T05:02:32.007Z,994.95
2022-09-24T05:03:31.920Z,994.88
2022-09-24T05:04:31.911Z,994.90
2022-09-24T05:05:31.891Z,994.89
2022-09-24T05:06:31.919Z,994.90
2022-09-24T05:07:31.887Z,994.95
2022-09-24T05:08:31.898Z,994.94
2022-09-24T05:09:31.867Z,994.99
2022-09-24T05:10:31.857Z,994.93
2022-09-24T05:11:31.871Z,994.93
2022-09-24T05:12:31.832Z,994.90
2022-09-24T05:13:31.843Z,994.86
2022-09-24T05:14:31.814Z,994.88
2022-09-24T05:15:31.875Z,994.88
2022-09-24T05:16:31.938Z,994.85
2022-09-24T05:17:31.785Z,994.89
2022-09-24T05:18:31.782Z,994.89
2022-09-24T05:19:31.772Z,994.86
2022-09-24T05:20:31.763Z,994.93
2022-09-24T05:21:31.788Z,994.86
2022-09-24T05:22:31.742Z,994.88
2022-09-24T05:23:31.740Z,994.89
2022-09-24T05:24:31.734Z,994.92
2022-09-24T05:25:31.726Z,994.92
2022-09-24T05:26:31.746Z,994.90
2022-09-24T05:27:31.701Z,994.86
2022-09-24T05:28:31.693Z,994.86
2022-09-24T05:29:31.691Z,995.01
2022-09-24T05:30:31.683Z,994.87
2022-09-24T05:31:31.735Z,994.91
2022-09-24T05:32:31.685Z,994.86
2022-09-24T05:33:31.652Z,994.86
2022-09-24T05:34:31.645Z,994.87
2022-09-24T05:35:31.642Z,994.82
2022-09-24T05:36:31.653Z,994.87
2022-09-24T05:37:31.615Z,994.88
2022-09-24T05:38:31.610Z,994.85
2022-09-24T05:39:34.142Z,994.83
2022-09-24T05:40:32.700Z,994.83
2022-09-24T05:41:31.615Z,994.79
2022-09-24T05:42:31.586Z,994.77
2022-09-24T05:43:31.577Z,994.83
2022-09-24T05:44:31.588Z,994.79
2022-09-24T05:45:31.557Z,994.78
2022-09-24T05:46:31.612Z,994.75
2022-09-24T05:47:31.604Z,994.76
2022-09-24T05:48:31.535Z,994.69
2022-09-24T05:49:31.533Z,994.78
2022-09-24T05:50:31.518Z,994.79
2022-09-24T05:51:31.536Z,994.79
2022-09-24T05:52:31.501Z,994.74
2022-09-24T05:53:31.488Z,994.78
2022-09-24T05:54:31.483Z,994.77
2022-09-24T05:55:32.580Z,994.93
2022-09-24T05:56:32.492Z,994.79
2022-09-24T05:57:31.451Z,994.89
2022-09-24T05:58:31.448Z,994.92
2022-09-24T05:59:31.436Z,994.95
2022-09-24T06:00:31.424Z,994.89
2022-09-24T06:01:31.506Z,994.91
2022-09-24T06:02:31.450Z,994.89
2022-09-24T06:03:31.546Z,994.91
2022-09-24T06:04:31.413Z,994.86
2022-09-24T06:05:31.393Z,994.87
2022-09-24T06:06:31.421Z,994.87
2022-09-24T06:07:31.374Z,994.85
2022-09-24T06:08:31.371Z,994.74
2022-09-24T06:09:31.354Z,994.76
2022-09-24T06:10:31.349Z,994.72
2022-09-24T06:11:31.369Z,994.69
2022-09-24T06:12:31.339Z,994.75
2022-09-24T06:13:31.346Z,994.77
2022-09-24T06:14:31.320Z,994.73
2022-09-24T06:15:31.304Z,994.77
2022-09-24T06:16:31.365Z,994.77
2022-09-24T06:17:31.286Z,994.86
2022-09-24T06:18:31.274Z,994.78
2022-09-24T06:19:31.271Z,994.80
2022-09-24T06:20:31.373Z,994.80
2022-09-24T06:21:31.287Z,994.81
2022-09-24T06:22:31.241Z,994.83
2022-09-24T06:23:31.235Z,994.78
2022-09-24T06:24:31.223Z,994.81
2022-09-24T06:25:31.226Z,994.76
2022-09-24T06:26:31.241Z,994.79
2022-09-24T06:27:31.202Z,994.77
2022-09-24T06:28:31.202Z,994.86
2022-09-24T06:29:31.182Z,994.85
2022-09-24T06:30:31.172Z,994.84
2022-09-24T06:31:31.242Z,994.87
2022-09-24T06:32:31.164Z,994.91
2022-09-24T06:33:31.148Z,994.88
2022-09-24T06:34:31.143Z,994.94
2022-09-24T06:35:31.134Z,994.90
2022-09-24T06:36:31.151Z,994.92
2022-09-24T06:37:31.108Z,994.94
2022-09-24T06:38:31.136Z,994.94
2022-09-24T06:39:31.096Z,994.98
2022-09-24T06:40:36.259Z,994.94
2022-09-24T06:41:33.099Z,994.96
2022-09-24T06:42:31.072Z,994.97
2022-09-24T06:43:31.060Z,995.02
2022-09-24T06:44:31.095Z,995.02
2022-09-24T06:45:31.047Z,995.01
2022-09-24T06:46:31.076Z,994.95
2022-09-24T06:47:31.041Z,995.05
2022-09-24T06:48:31.019Z,995.05
2022-09-24T06:49:34.108Z,995.09
2022-09-24T06:50:31.999Z,995.07
2022-09-24T06:51:31.023Z,994.99
2022-09-24T06:52:30.989Z,995.04
2022-09-24T06:53:30.973Z,995.06
2022-09-24T06:54:30.972Z,995.05
2022-09-24T06:55:30.959Z,995.08
2022-09-24T06:56:30.976Z,995.05
2022-09-24T06:57:30.937Z,995.04
2022-09-24T06:58:30.933Z,995.03
2022-09-24T06:59:31.922Z,995.03
2022-09-24T07:00:30.920Z,995.09
2022-09-24T07:01:31.051Z,995.06
2022-09-24T07:02:30.982Z,995.05
2022-09-24T07:03:30.896Z,995.10
2022-09-24T07:04:30.883Z,995.09
2022-09-24T07:05:30.875Z,995.10
2022-09-24T07:06:30.904Z,995.13
2022-09-24T07:07:30.863Z,995.09
2022-09-24T07:08:30.850Z,995.12
2022-09-24T07:09:30.845Z,995.20
2022-09-24T07:10:30.835Z,995.23
2022-09-24T07:11:30.862Z,995.14
2022-09-24T07:12:30.813Z,995.19
2022-09-24T07:13:30.807Z,995.14
2022-09-24T07:14:30.795Z,995.17
2022-09-24T07:15:30.789Z,995.13
2022-09-24T07:16:30.889Z,995.18
2022-09-24T07:17:33.917Z,995.16
2022-09-24T07:18:31.768Z,995.13
2022-09-24T07:19:30.757Z,995.12
2022-09-24T07:20:30.751Z,995.11
2022-09-24T07:21:31.772Z,995.11
2022-09-24T07:22:30.730Z,995.05
2022-09-24T07:23:30.790Z,995.07
2022-09-24T07:24:30.723Z,995.05
2022-09-24T07:25:30.706Z,995.07
2022-09-24T07:26:30.705Z,995.01
2022-09-24T07:27:30.715Z,995.09
2022-09-24T07:28:30.683Z,995.04
2022-09-24T07:29:30.677Z,995.05
2022-09-24T07:30:30.667Z,995.14
2022-09-24T07:31:30.717Z,995.05
2022-09-24T07:32:30.681Z,995.05
2022-09-24T07:33:30.639Z,995.15
2022-09-24T07:34:31.624Z,995.10
2022-09-24T07:35:30.620Z,995.07
2022-09-24T07:36:30.621Z,995.02
2022-09-24T07:37:30.635Z,995.08
2022-09-24T07:38:30.601Z,995.00
2022-09-24T07:39:30.647Z,995.02
2022-09-24T07:40:30.634Z,995.02
2022-09-24T07:41:30.579Z,994.99
2022-09-24T07:42:30.598Z,995.03
2022-09-24T07:43:30.560Z,995.03
2022-09-24T07:44:30.549Z,994.98
2022-09-24T07:45:30.558Z,994.99
2022-09-24T07:46:30.608Z,994.99
2022-09-24T07:47:31.561Z,994.96
2022-09-24T07:48:30.515Z,994.97
2022-09-24T07:49:30.515Z,995.01
2022-09-24T07:50:30.504Z,995.01
2022-09-24T07:51:30.490Z,994.96
2022-09-24T07:52:30.508Z,994.92
2022-09-24T07:53:30.474Z,994.95
2022-09-24T07:54:30.463Z,994.94
2022-09-24T07:55:30.456Z,994.90
2022-09-24T07:56:30.453Z,994.96
2022-09-24T07:57:30.474Z,994.98
2022-09-24T07:58:30.437Z,994.91
2022-09-24T07:59:30.423Z,994.84
2022-09-24T08:00:30.415Z,994.87
2022-09-24T08:01:30.495Z,994.88
2022-09-24T08:02:30.439Z,995.06
2022-09-24T08:03:30.471Z,994.94
2022-09-24T08:04:30.378Z,995.00
2022-09-24T08:05:30.376Z,994.91
2022-09-24T08:06:34.485Z,994.86
2022-09-24T08:07:31.387Z,994.89
2022-09-24T08:08:30.351Z,994.91
2022-09-24T08:09:30.343Z,994.90
2022-09-24T08:10:30.334Z,994.88
2022-09-24T08:11:30.384Z,994.84
2022-09-24T08:12:30.355Z,994.90
2022-09-24T08:13:30.310Z,994.89
2022-09-24T08:14:30.297Z,994.86
2022-09-24T08:15:30.291Z,994.90
2022-09-24T08:16:30.318Z,994.92
2022-09-24T08:17:30.303Z,994.92
2022-09-24T08:18:30.307Z,994.90
2022-09-24T08:19:30.260Z,994.91
2022-09-24T08:20:30.252Z,994.86
2022-09-24T08:21:30.249Z,994.86
2022-09-24T08:22:30.267Z,994.86
2022-09-24T08:23:30.261Z,994.81
2022-09-24T08:24:30.219Z,994.83
2022-09-24T08:25:30.222Z,994.82
2022-09-24T08:26:30.203Z,994.81
2022-09-24T08:27:30.226Z,994.88
2022-09-24T08:28:30.240Z,994.89
2022-09-24T08:29:31.195Z,994.79
2022-09-24T08:30:30.174Z,994.87
2022-09-24T08:31:30.233Z,994.82
2022-09-24T08:32:30.192Z,994.86
2022-09-24T08:33:30.146Z,994.87
2022-09-24T08:34:30.140Z,994.82
2022-09-24T08:35:30.131Z,994.80
2022-09-24T08:36:30.129Z,994.81
2022-09-24T08:37:30.143Z,994.74
2022-09-24T08:38:30.113Z,994.85
2022-09-24T08:39:30.093Z,994.68
2022-09-24T08:40:30.160Z,994.77
2022-09-24T08:41:30.079Z,994.71
2022-09-24T08:42:30.108Z,994.75
2022-09-24T08:43:30.120Z,994.76
2022-09-24T08:44:30.056Z,994.70
2022-09-24T08:45:30.052Z,994.68
2022-09-24T08:46:30.103Z,994.64
2022-09-24T08:47:30.061Z,994.76
2022-09-24T08:48:30.020Z,994.69
2022-09-24T08:49:30.012Z,994.64
2022-09-24T08:50:30.008Z,994.65
2022-09-24T08:51:33.326Z,994.61
2022-09-24T08:52:31.023Z,994.55
2022-09-24T08:53:29.984Z,994.62
2022-09-24T08:54:29.973Z,994.62
2022-09-24T08:55:29.966Z,994.59
2022-09-24T08:56:29.964Z,994.59
2022-09-24T08:57:29.986Z,994.50
2022-09-24T08:58:29.942Z,994.54
2022-09-24T08:59:29.994Z,994.48
2022-09-24T09:00:29.928Z,994.47
2022-09-24T09:01:29.991Z,994.53
2022-09-24T09:02:30.026Z,994.54
2022-09-24T09:03:29.905Z,994.49
2022-09-24T09:04:29.948Z,994.45
2022-09-24T09:05:29.900Z,994.42
2022-09-24T09:06:29.885Z,994.38
2022-09-24T09:07:29.907Z,994.41
2022-09-24T09:08:50.435Z,994.39
2022-09-24T09:09:31.851Z,994.42
2022-09-24T09:10:29.845Z,994.50
2022-09-24T09:11:29.834Z,994.42
2022-09-24T09:12:29.864Z,994.37
2022-09-24T09:13:29.838Z,994.53
2022-09-24T09:14:31.561Z,994.49
2022-09-24T09:15:30.821Z,994.40
2022-09-24T09:16:29.840Z,994.50
2022-09-24T09:17:29.821Z,994.42
2022-09-24T09:18:29.787Z,994.47
2022-09-24T09:19:29.780Z,994.46
2022-09-24T09:20:29.767Z,994.39
2022-09-24T09:21:29.759Z,994.40
2022-09-24T09:22:29.779Z,994.40
2022-09-24T09:23:29.756Z,994.43
2022-09-24T09:24:29.736Z,994.40
2022-09-24T09:25:29.732Z,994.42
2022-09-24T09:26:29.727Z,994.42
2022-09-24T09:27:29.751Z,994.38
2022-09-24T09:28:29.693Z,994.40
2022-09-24T09:29:30.705Z,994.38
2022-09-24T09:30:29.694Z,994.32
2022-09-24T09:31:29.811Z,994.36
2022-09-24T09:32:29.715Z,994.35
2022-09-24T09:33:29.677Z,994.36
2022-09-24T09:34:29.713Z,994.34
2022-09-24T09:35:29.657Z,994.35
2022-09-24T09:36:29.647Z,994.32
2022-09-24T09:37:29.638Z,994.30
2022-09-24T09:38:29.665Z,994.25
2022-09-24T09:39:29.618Z,994.27
2022-09-24T09:40:32.164Z,994.28
2022-09-24T09:41:30.703Z,994.25
2022-09-24T09:42:29.606Z,994.24
2022-09-24T09:43:29.626Z,994.22
2022-09-24T09:44:29.584Z,994.20
2022-09-24T09:45:29.572Z,994.17
2022-09-24T09:46:29.605Z,994.23
2022-09-24T09:47:29.588Z,994.18
2022-09-24T09:48:29.585Z,994.21
2022-09-24T09:49:29.550Z,994.26
2022-09-24T09:50:29.534Z,994.20
2022-09-24T09:51:29.512Z,994.18
2022-09-24T09:52:30.514Z,994.16
2022-09-24T09:53:29.533Z,994.21
2022-09-24T09:54:29.496Z,994.14
2022-09-24T09:55:29.493Z,994.14
2022-09-24T09:56:29.485Z,994.15
2022-09-24T09:57:29.472Z,994.12
2022-09-24T09:58:29.490Z,994.07
2022-09-24T09:59:29.984Z,994.12
2022-09-24T10:00:30.448Z,994.09
2022-09-24T10:01:29.445Z,994.18
2022-09-24T10:02:29.676Z,994.11
2022-09-24T10:03:29.531Z,994.13
2022-09-24T10:04:29.462Z,994.16
2022-09-24T10:05:29.419Z,994.08
2022-09-24T10:06:29.410Z,994.14
2022-09-24T10:07:29.400Z,994.13
2022-09-24T10:08:29.417Z,994.17
2022-09-24T10:09:29.381Z,994.12
2022-09-24T10:10:29.384Z,994.09
2022-09-24T10:11:29.360Z,994.13
2022-09-24T10:12:29.353Z,994.15
2022-09-24T10:13:29.385Z,994.16
2022-09-24T10:14:29.344Z,994.19
2022-09-24T10:15:29.323Z,994.11
2022-09-24T10:16:29.375Z,994.12
2022-09-24T10:17:29.314Z,994.13
2022-09-24T10:18:29.338Z,994.12
2022-09-24T10:19:29.295Z,994.11
2022-09-24T10:20:29.309Z,994.09
2022-09-24T10:21:29.283Z,994.02
2022-09-24T10:22:29.270Z,994.05
2022-09-24T10:23:29.286Z,994.12
2022-09-24T10:24:29.255Z,994.07
2022-09-24T10:25:29.245Z,994.08
2022-09-24T10:26:29.243Z,994.05
2022-09-24T10:27:29.228Z,994.00
2022-09-24T10:28:29.252Z,994.02
2022-09-24T10:29:29.216Z,994.04
2022-09-24T10:30:29.218Z,994.08
2022-09-24T10:31:29.241Z,994.00
2022-09-24T10:32:29.189Z,994.05
2022-09-24T10:33:29.221Z,993.99
2022-09-24T10:34:29.192Z,993.97
2022-09-24T10:35:29.170Z,994.01
2022-09-24T10:36:29.167Z,993.99
2022-09-24T10:37:29.158Z,993.98
2022-09-24T10:38:29.150Z,994.08
2022-09-24T10:39:29.158Z,994.02
2022-09-24T10:40:29.174Z,994.00
2022-09-24T10:41:29.123Z,994.03
2022-09-24T10:42:29.167Z,994.03
2022-09-24T10:43:29.108Z,993.97
2022-09-24T10:44:29.120Z,994.01
2022-09-24T10:45:29.084Z,994.05
2022-09-24T10:46:29.135Z,994.00
2022-09-24T10:47:29.064Z,993.99
2022-09-24T10:48:29.066Z,993.99
2022-09-24T10:49:29.082Z,993.99
2022-09-24T10:50:29.053Z,993.95
2022-09-24T10:51:29.735Z,994.00
2022-09-24T10:52:30.021Z,993.95
2022-09-24T10:53:29.033Z,993.98
2022-09-24T10:54:29.046Z,994.03
2022-09-24T10:55:29.005Z,993.95
2022-09-24T10:56:29.004Z,993.93
2022-09-24T10:57:28.992Z,993.91
2022-09-24T10:58:28.988Z,993.94
2022-09-24T10:59:29.004Z,993.89
2022-09-24T11:00:28.980Z,993.94
2022-09-24T11:01:29.016Z,993.89
2022-09-24T11:02:29.096Z,993.86
2022-09-24T11:03:28.944Z,993.85
2022-09-24T11:04:28.988Z,993.86
2022-09-24T11:05:28.934Z,993.83
2022-09-24T11:06:28.931Z,993.82
2022-09-24T11:07:28.920Z,993.84
2022-09-24T11:08:28.915Z,993.86
2022-09-24T11:09:28.926Z,993.83
2022-09-24T11:10:28.898Z,993.82
2022-09-24T11:11:28.900Z,993.78
2022-09-24T11:12:47.839Z,993.81
2022-09-24T11:13:28.910Z,993.76
2022-09-24T11:14:28.880Z,993.69
2022-09-24T11:15:28.858Z,993.73
2022-09-24T11:16:28.914Z,993.72
2022-09-24T11:17:28.848Z,993.69
2022-09-24T11:18:29.160Z,993.67
2022-09-24T11:19:29.041Z,993.70
2022-09-24T11:20:28.844Z,993.68
2022-09-24T11:21:29.889Z,993.64
2022-09-24T11:22:28.806Z,993.72
2022-09-24T11:23:28.887Z,993.62
2022-09-24T11:24:28.822Z,993.52
2022-09-24T11:25:28.790Z,993.55
2022-09-24T11:26:28.783Z,993.54
2022-09-24T11:27:28.771Z,993.51
2022-09-24T11:28:28.765Z,993.51
2022-09-24T11:29:31.085Z,993.50
2022-09-24T11:30:28.745Z,993.58
2022-09-24T11:31:28.766Z,993.49
2022-09-24T11:32:28.724Z,993.44
2022-09-24T11:33:28.726Z,993.46
2022-09-24T11:34:28.760Z,993.42
2022-09-24T11:35:28.710Z,993.39
2022-09-24T11:36:28.706Z,993.41
2022-09-24T11:37:28.701Z,993.42
2022-09-24T11:38:28.689Z,993.43
2022-09-24T11:39:28.990Z,993.38
2022-09-24T11:40:28.757Z,993.37
2022-09-24T11:41:28.808Z,993.44
2022-09-24T11:42:28.660Z,993.43
2022-09-24T11:43:28.771Z,993.48
2022-09-24T11:44:28.772Z,993.36
2022-09-24T11:45:28.706Z,993.37
2022-09-24T11:46:28.742Z,993.48
2022-09-24T11:47:28.626Z,993.38
2022-09-24T11:48:28.802Z,993.45
2022-09-24T11:49:28.635Z,993.39
2022-09-24T11:50:28.885Z,993.40
2022-09-24T11:51:28.593Z,993.34
2022-09-24T11:52:28.702Z,993.39
2022-09-24T11:53:28.574Z,993.27
2022-09-24T11:54:28.605Z,993.31
2022-09-24T11:55:28.568Z,993.31
2022-09-24T11:56:28.551Z,993.31
2022-09-24T11:57:28.662Z,993.24
2022-09-24T11:58:28.561Z,993.33
2022-09-24T11:59:28.590Z,993.23
2022-09-24T12:00:28.570Z,993.19
2022-09-24T12:01:28.578Z,993.16
2022-09-24T12:02:28.681Z,993.18
2022-09-24T12:03:28.600Z,993.22
2022-09-24T12:04:28.518Z,993.14
2022-09-24T12:05:28.485Z,993.16
2022-09-24T12:06:28.485Z,993.24
2022-09-24T12:07:28.521Z,993.22
2022-09-24T12:08:28.682Z,993.21
2022-09-24T12:09:28.492Z,993.13
2022-09-24T12:10:28.453Z,993.10
2022-09-24T12:11:29.441Z,993.12
2022-09-24T12:12:28.565Z,993.11
2022-09-24T12:13:28.630Z,993.18
2022-09-24T12:14:28.455Z,993.00
2022-09-24T12:15:28.413Z,992.96
2022-09-24T12:16:28.513Z,993.06
2022-09-24T12:17:28.403Z,993.12
2022-09-24T12:18:28.415Z,993.02
2022-09-24T12:19:28.389Z,993.06
2022-09-24T12:20:28.398Z,993.08
2022-09-24T12:21:28.373Z,993.07
2022-09-24T12:22:28.357Z,993.09
2022-09-24T12:23:28.392Z,993.09
2022-09-24T12:24:28.356Z,993.04
2022-09-24T12:25:28.348Z,993.05
2022-09-24T12:26:28.339Z,993.02
2022-09-24T12:27:28.387Z,993.02
2022-09-24T12:28:28.351Z,993.03